Time;durP1;ratioP1;P1;durP2;ratioP2;P2;SDS_P1;SDS_P2;PMS_P1;PMS_P2;Temp;Humidity;BMP_temperature;BMP_pressure;BME280_temperature;BME280_humidity;BME280_pressure;Samples;Min_cycle;Max_cycle;Signal;HPM_P1;HPM_P2
2022/02/22 00:02:25;;;;;;;31.38;17.50;;;;;;;8.03;59.36;100722.97;5114024;28;20047;-60
2022/02/22 00:04:51;;;;;;;27.73;16.52;;;;;;;8.01;59.17;100718.66;5115454;28;20109;-59
2022/02/22 00:07:18;;;;;;;25.48;14.68;;;;;;;8.01;58.93;100709.94;5115717;28;20762;-59
2022/02/22 00:09:45;;;;;;;30.67;16.58;;;;;;;7.96;58.80;100704.09;5111591;28;20101;-60
2022/02/22 00:12:11;;;;;;;30.13;16.02;;;;;;;7.92;58.71;100716.47;5110259;28;20071;-59
2022/02/22 00:14:38;;;;;;;27.75;16.63;;;;;;;7.85;58.59;100718.50;5115428;28;20047;-60
2022/02/22 00:17:04;;;;;;;27.75;15.98;;;;;;;7.85;58.50;100721.09;5115245;28;20051;-59
2022/02/22 00:19:31;;;;;;;27.35;14.88;;;;;;;7.83;58.46;100724.72;5114763;28;20039;-61
2022/02/22 00:21:58;;;;;;;27.35;15.90;;;;;;;7.77;58.00;100738.03;5115411;28;20043;-59
2022/02/22 00:24:24;;;;;;;27.40;15.07;;;;;;;7.71;58.06;100733.94;5115012;28;20116;-60
2022/02/22 00:26:51;;;;;;;25.38;14.95;;;;;;;7.65;57.95;100735.06;5112340;27;20047;-61
2022/02/22 00:29:18;;;;;;;27.50;14.77;;;;;;;7.64;57.76;100742.97;5104030;28;20040;-60
2022/02/22 00:31:46;;;;;;;27.80;15.18;;;;;;;7.61;57.74;100749.19;5100543;28;20046;-61
2022/02/22 00:34:13;;;;;;;26.65;14.68;;;;;;;7.60;57.87;100763.16;5115034;28;20047;-59
2022/02/22 00:36:40;;;;;;;24.00;14.32;;;;;;;7.58;57.58;100759.78;5115002;28;20040;-60
2022/02/22 00:39:06;;;;;;;25.67;15.52;;;;;;;7.48;57.75;100750.66;5114758;28;20454;-60
2022/02/22 00:41:33;;;;;;;26.73;15.93;;;;;;;7.40;57.73;100755.34;5114957;28;20047;-60
2022/02/22 00:44:00;;;;;;;27.27;15.15;;;;;;;7.41;57.43;100762.25;5101187;27;20503;-59
2022/02/22 00:46:26;;;;;;;27.73;14.40;;;;;;;7.35;57.29;100771.19;5114873;28;20233;-59
2022/02/22 00:48:53;;;;;;;27.05;14.60;;;;;;;7.27;57.31;100760.25;5114527;28;20066;-59
2022/02/22 00:51:20;;;;;;;23.73;14.55;;;;;;;7.16;57.63;100753.72;5114936;28;20044;-59
2022/02/22 00:53:47;;;;;;;26.65;14.65;;;;;;;7.15;57.45;100777.28;5114333;28;20047;-59
2022/02/22 00:56:14;;;;;;;25.85;14.80;;;;;;;7.14;57.25;100779.03;5114672;28;20101;-59
2022/02/22 00:58:41;;;;;;;25.02;14.55;;;;;;;7.16;57.18;100787.66;5112911;28;20511;-60
2022/02/22 01:01:07;;;;;;;24.25;14.07;;;;;;;7.14;57.31;100797.28;5114538;28;20503;-59
2022/02/22 01:03:34;;;;;;;25.83;14.02;;;;;;;7.09;57.60;100798.41;5114511;28;20047;-59
2022/02/22 01:06:00;;;;;;;24.17;14.07;;;;;;;7.06;57.59;100809.81;5100153;28;20040;-59
2022/02/22 01:08:27;;;;;;;24.60;13.45;;;;;;;7.06;57.53;100815.03;5111629;28;20044;-59
2022/02/22 01:10:56;;;;;;;26.73;13.73;;;;;;;7.05;57.45;100807.25;5112799;28;20039;-59
2022/02/22 01:13:23;;;;;;;26.45;14.18;;;;;;;6.98;57.56;100796.22;5114227;28;20059;-59
2022/02/22 01:15:50;;;;;;;25.35;13.90;;;;;;;6.95;57.54;100810.25;5112223;28;20049;-61
2022/02/22 01:18:17;;;;;;;25.13;14.77;;;;;;;6.98;57.78;100815.34;5104786;28;20510;-59
2022/02/22 01:20:43;;;;;;;25.38;14.65;;;;;;;7.03;57.64;100799.50;5102062;28;20052;-60
2022/02/22 01:23:10;;;;;;;26.38;14.02;;;;;;;7.00;57.65;100810.06;5107076;28;20056;-59
2022/02/22 01:25:37;;;;;;;26.77;14.73;;;;;;;6.97;57.83;100804.94;5103746;28;20040;-60
2022/02/22 01:28:04;;;;;;;24.00;13.38;;;;;;;7.00;57.88;100825.72;5107473;28;20069;-59
2022/02/22 01:30:30;;;;;;;28.02;14.15;;;;;;;7.03;57.75;100820.38;5098107;28;20048;-59
2022/02/22 01:32:57;;;;;;;25.15;14.57;;;;;;;7.07;57.78;100823.69;5101390;28;20485;-59
2022/02/22 01:35:23;;;;;;;25.25;14.48;;;;;;;7.03;57.89;100834.28;5100907;28;20487;-59
2022/02/22 01:37:50;;;;;;;24.85;14.43;;;;;;;6.89;58.17;100831.34;5101909;28;20469;-61
2022/02/22 01:40:17;;;;;;;27.50;14.68;;;;;;;6.82;58.17;100838.56;5105748;28;20044;-60
2022/02/22 01:42:44;;;;;;;24.85;15.27;;;;;;;6.81;58.16;100836.88;5104508;28;20508;-60
2022/02/22 01:45:11;;;;;;;25.80;14.77;;;;;;;6.77;58.17;100835.31;5104133;28;20044;-59
2022/02/22 01:47:38;;;;;;;24.00;13.80;;;;;;;6.72;58.13;100839.84;5105686;28;20047;-60
2022/02/22 01:50:08;;;;;;;28.92;14.07;;;;;;;6.68;58.16;100836.50;5095384;28;20048;-60
2022/02/22 01:52:35;;;;;;;24.58;13.32;;;;;;;6.63;58.03;100854.09;5105729;28;20176;-60
2022/02/22 01:55:02;;;;;;;24.80;13.43;;;;;;;6.57;58.29;100858.69;5099927;28;20044;-60
2022/02/22 01:57:30;;;;;;;20.98;12.95;;;;;;;6.49;58.02;100859.84;5106199;28;20039;-59
2022/02/22 01:59:56;;;;;;;24.58;13.48;;;;;;;6.46;58.09;100864.31;5105227;27;20089;-59
2022/02/22 02:02:23;;;;;;;21.20;11.82;;;;;;;6.42;58.04;100870.56;5111167;28;20457;-60
2022/02/22 02:04:50;;;;;;;26.13;14.00;;;;;;;6.42;58.15;100867.94;5099166;28;20040;-60
2022/02/22 02:07:18;;;;;;;25.92;14.40;;;;;;;6.41;58.13;100869.69;5102843;28;20729;-59
2022/02/22 02:09:45;;;;;;;30.27;15.88;;;;;;;6.46;57.98;100878.22;5103982;28;20412;-59
2022/02/22 02:12:13;;;;;;;27.27;14.55;;;;;;;6.42;58.01;100887.03;5100945;28;20138;-59
2022/02/22 02:14:40;;;;;;;22.48;13.68;;;;;;;6.40;57.96;100885.38;5105426;28;20557;-59
2022/02/22 02:17:07;;;;;;;29.05;15.50;;;;;;;6.33;58.16;100882.16;5102519;28;20549;-58
2022/02/22 02:19:34;;;;;;;27.27;14.77;;;;;;;6.34;58.21;100887.31;5105601;28;20040;-60
2022/02/22 02:22:01;;;;;;;29.92;14.85;;;;;;;6.36;58.00;100889.84;5100523;28;20055;-60
2022/02/22 02:24:28;;;;;;;30.17;15.13;;;;;;;6.37;58.17;100888.94;5102873;28;20556;-59
2022/02/22 02:26:56;;;;;;;31.17;16.25;;;;;;;6.38;58.23;100883.69;5102366;28;20044;-60
2022/02/22 02:29:25;;;;;;;27.67;14.52;;;;;;;6.32;58.23;100881.31;5102151;28;20113;-60
2022/02/22 02:31:53;;;;;;;27.38;15.30;;;;;;;6.34;58.38;100887.31;5098541;28;20089;-59
2022/02/22 02:34:22;;;;;;;24.33;13.90;;;;;;;6.27;58.72;100885.84;5109368;28;20098;-60
2022/02/22 02:36:50;;;;;;;25.85;14.57;;;;;;;6.26;58.73;100883.28;5110438;28;20392;-59
2022/02/22 02:39:17;;;;;;;29.10;15.75;;;;;;;6.21;58.59;100886.06;5111786;28;20047;-59
2022/02/22 02:41:45;;;;;;;32.83;16.33;;;;;;;6.29;58.65;100877.97;5112440;28;20066;-59
2022/02/22 02:44:15;;;;;;;31.85;16.10;;;;;;;6.29;58.60;100880.59;5112779;28;20479;-59
2022/02/22 02:46:42;;;;;;;30.17;15.57;;;;;;;6.26;58.67;100885.88;5112422;28;20054;-59
2022/02/22 02:49:11;;;;;;;29.42;15.68;;;;;;;6.22;58.64;100879.94;5112801;28;20047;-59
2022/02/22 02:51:38;;;;;;;26.63;14.50;;;;;;;6.15;58.79;100875.88;5109132;28;20078;-60
2022/02/22 02:54:05;;;;;;;26.10;15.48;;;;;;;6.11;58.91;100884.72;5111896;28;20484;-59
2022/02/22 02:56:32;;;;;;;31.90;16.05;;;;;;;6.03;59.02;100897.97;5112003;28;20096;-60
2022/02/22 02:59:00;;;;;;;34.85;17.40;;;;;;;6.02;59.13;100886.72;5112259;28;20040;-59
2022/02/22 03:01:30;;;;;;;36.85;17.98;;;;;;;6.05;58.92;100917.03;5112558;28;20557;-59
2022/02/22 03:03:57;;;;;;;30.52;17.70;;;;;;;6.05;59.10;100891.81;5112010;28;20100;-61
2022/02/22 03:06:24;;;;;;;31.83;16.17;;;;;;;6.03;59.26;100906.66;5112488;28;20047;-59
2022/02/22 03:08:51;;;;;;;32.55;17.35;;;;;;;6.04;59.15;100907.50;5112198;28;20050;-59
2022/02/22 03:11:19;;;;;;;31.42;16.35;;;;;;;6.07;59.25;100894.38;5111656;28;20090;-59
2022/02/22 03:13:46;;;;;;;32.17;17.48;;;;;;;6.04;59.26;100918.78;5112058;28;20492;-60
2022/02/22 03:16:13;;;;;;;29.10;16.02;;;;;;;6.03;59.38;100919.69;5112461;28;20051;-60
2022/02/22 03:18:40;;;;;;;27.23;14.93;;;;;;;6.00;59.60;100921.53;5112587;28;20492;-60
2022/02/22 03:21:07;;;;;;;28.27;16.00;;;;;;;5.97;59.52;100924.25;5111872;28;20403;-59
2022/02/22 03:23:33;;;;;;;29.95;15.50;;;;;;;5.92;59.65;100931.31;5112025;28;20047;-60
2022/02/22 03:26:00;;;;;;;27.30;15.02;;;;;;;5.92;59.65;100923.50;5112037;28;20419;-59
2022/02/22 03:28:27;;;;;;;30.15;16.33;;;;;;;5.94;59.43;100919.97;5110901;28;20047;-59
2022/02/22 03:30:54;;;;;;;32.92;18.02;;;;;;;5.94;59.52;100919.97;5099160;28;20097;-60
2022/02/22 03:33:21;;;;;;;34.50;17.55;;;;;;;5.95;59.66;100916.44;5109186;28;20488;-59
2022/02/22 03:35:48;;;;;;;33.40;16.70;;;;;;;5.94;59.83;100913.91;5112292;28;20085;-59
2022/02/22 03:38:15;;;;;;;30.05;15.85;;;;;;;5.86;59.71;100922.81;5111848;28;20047;-61
2022/02/22 03:40:41;;;;;;;30.92;16.25;;;;;;;5.80;59.81;100912.66;5112059;28;20488;-59
2022/02/22 03:43:08;;;;;;;31.20;16.55;;;;;;;5.78;60.01;100922.25;5112140;28;20104;-59
2022/02/22 03:45:35;;;;;;;28.95;16.60;;;;;;;5.81;59.92;100935.16;5108651;28;20412;-62
2022/02/22 03:48:02;;;;;;;34.03;18.38;;;;;;;5.86;59.96;100946.25;5103894;28;20499;-59
2022/02/22 03:50:29;;;;;;;33.45;18.35;;;;;;;5.91;59.82;100940.06;5111904;28;20043;-60
2022/02/22 03:52:55;;;;;;;31.65;16.88;;;;;;;5.84;60.19;100929.84;5112248;28;20098;-59
2022/02/22 03:55:23;;;;;;;32.45;18.08;;;;;;;5.81;60.06;100940.34;5113173;28;20112;-59
2022/02/22 03:57:50;;;;;;;37.28;18.20;;;;;;;5.81;60.27;100947.34;5104141;28;20492;-59
2022/02/22 04:00:19;;;;;;;29.95;16.75;;;;;;;5.78;60.20;100950.91;5115556;28;20044;-62
2022/02/22 04:02:46;;;;;;;34.78;17.75;;;;;;;5.71;60.40;100954.59;5106266;28;20036;-59
2022/02/22 04:05:15;;;;;;;32.85;17.05;;;;;;;5.76;60.39;100970.06;5111451;27;20497;-58
2022/02/22 04:07:44;;;;;;;37.22;18.00;;;;;;;5.51;60.76;100976.94;5094331;28;20040;-59
2022/02/22 04:10:11;;;;;;;33.95;17.42;;;;;;;5.40;61.48;100979.00;5112123;28;20047;-59
2022/02/22 04:12:38;;;;;;;37.22;18.17;;;;;;;5.51;60.99;100968.25;5112304;28;20108;-59
2022/02/22 04:15:07;;;;;;;37.92;17.98;;;;;;;5.56;61.11;100962.00;5111863;28;20449;-59
2022/02/22 04:17:33;;;;;;;34.50;17.58;;;;;;;5.59;60.64;100974.06;5104782;27;20526;-60
2022/02/22 04:20:00;;;;;;;34.42;17.55;;;;;;;5.64;61.00;100972.16;5111985;28;20093;-59
2022/02/22 04:22:27;;;;;;;34.22;17.10;;;;;;;5.75;60.71;100984.00;5112115;28;20040;-59
2022/02/22 04:24:53;;;;;;;35.25;16.40;;;;;;;5.72;60.53;100977.97;5111528;28;20069;-59
2022/02/22 04:27:20;;;;;;;29.52;15.30;;;;;;;5.76;60.56;100986.53;5111725;28;20048;-59
2022/02/22 04:29:49;;;;;;;32.42;15.63;;;;;;;5.78;60.29;100989.94;5109442;28;20122;-60
2022/02/22 04:32:16;;;;;;;28.70;15.35;;;;;;;5.77;60.44;100979.59;5099901;28;20044;-59
2022/02/22 04:34:43;;;;;;;29.10;16.10;;;;;;;5.86;60.29;100987.09;5109987;27;20073;-59
2022/02/22 04:37:16;;;;;;;32.78;16.20;;;;;;;5.86;59.68;100984.50;5105131;28;20083;-60
2022/02/22 04:39:51;;;;;;;31.63;14.95;;;;;;;5.58;60.82;100990.59;5098870;28;20043;-60
2022/02/22 04:42:20;;;;;;;28.67;14.85;;;;;;;5.70;60.46;100994.53;5098345;28;20048;-59
2022/02/22 04:44:47;;;;;;;29.77;14.93;;;;;;;5.73;60.06;100997.91;5098868;28;20040;-59
2022/02/22 04:47:14;;;;;;;34.90;15.98;;;;;;;5.76;59.83;100993.50;5104412;28;20105;-59
2022/02/22 04:49:41;;;;;;;31.30;15.30;;;;;;;5.61;60.25;101003.53;5100711;28;20044;-59
2022/02/22 04:52:09;;;;;;;30.00;16.23;;;;;;;5.68;59.94;100999.81;5099408;27;20262;-59
2022/02/22 04:54:37;;;;;;;30.13;14.82;;;;;;;5.65;59.87;101005.13;5091913;28;20474;-62
2022/02/22 04:57:05;;;;;;;30.23;15.52;;;;;;;5.64;59.71;101002.56;5092971;28;20040;-59
2022/02/22 04:59:32;;;;;;;28.40;15.27;;;;;;;5.66;59.89;101011.16;5092286;28;20052;-59
2022/02/22 05:01:59;;;;;;;31.08;15.38;;;;;;;5.67;59.69;101018.94;5092956;28;20113;-60
2022/02/22 05:04:26;;;;;;;30.35;14.27;;;;;;;5.68;59.72;101015.44;5090919;27;20052;-62
2022/02/22 05:06:52;;;;;;;30.55;14.63;;;;;;;5.68;59.55;101023.25;5091449;28;20044;-59
2022/02/22 05:09:19;;;;;;;27.10;14.05;;;;;;;5.68;59.47;101036.25;5092681;28;20094;-59
2022/02/22 05:11:46;;;;;;;28.90;14.20;;;;;;;5.71;59.50;101036.19;5091422;28;20090;-60
2022/02/22 05:14:12;;;;;;;27.05;14.68;;;;;;;5.67;59.41;101038.91;5092370;28;20112;-59
2022/02/22 05:16:40;;;;;;;29.63;14.05;;;;;;;5.67;59.48;101044.13;5091612;28;20044;-59
2022/02/22 05:19:07;;;;;;;25.90;14.60;;;;;;;5.69;59.38;101037.97;5092493;28;20062;-60
2022/02/22 05:21:34;;;;;;;29.13;14.77;;;;;;;5.66;59.25;101037.19;5091669;28;20393;-60
2022/02/22 05:24:02;;;;;;;28.88;15.02;;;;;;;5.63;59.33;101039.91;5091262;28;20507;-59
2022/02/22 05:26:29;;;;;;;31.50;15.02;;;;;;;5.55;59.35;101045.38;5091249;28;20044;-59
2022/02/22 05:28:56;;;;;;;26.33;13.43;;;;;;;5.55;59.31;101051.41;5091234;28;20044;-60
2022/02/22 05:31:23;;;;;;;28.65;15.10;;;;;;;5.57;59.11;101048.75;5091954;28;20086;-60
2022/02/22 05:33:50;;;;;;;31.08;15.63;;;;;;;5.53;59.13;101048.00;5110544;28;20036;-60
2022/02/22 05:36:20;;;;;;;27.48;15.00;;;;;;;5.46;59.28;101040.41;5110704;28;20054;-60
2022/02/22 05:38:48;;;;;;;31.08;15.43;;;;;;;5.33;59.63;101043.41;5110027;28;20043;-63
2022/02/22 05:41:17;;;;;;;26.05;14.68;;;;;;;5.40;59.18;101047.53;5110579;28;20093;-59
2022/02/22 05:43:48;;;;;;;24.40;14.88;;;;;;;5.43;59.02;101045.72;5098484;28;20047;-60
2022/02/22 05:46:16;;;;;;;30.77;14.35;;;;;;;5.46;59.20;101067.31;5110268;28;20048;-59
2022/02/22 05:48:42;;;;;;;24.23;13.52;;;;;;;5.47;59.24;101061.22;5110156;28;20043;-59
2022/02/22 05:51:12;;;;;;;27.95;13.55;;;;;;;5.55;59.12;101068.78;5110439;28;20487;-59
2022/02/22 05:53:40;;;;;;;23.90;13.55;;;;;;;5.52;59.02;101077.53;5109841;28;20051;-60
2022/02/22 05:56:07;;;;;;;24.08;12.40;;;;;;;5.51;59.00;101080.16;5110133;28;20039;-59
2022/02/22 05:58:34;;;;;;;24.10;12.32;;;;;;;5.47;58.97;101082.03;5109703;28;20499;-59
2022/02/22 06:01:07;;;;;;;23.63;13.77;;;;;;;5.45;58.90;101081.22;5109227;27;20047;-59
2022/02/22 06:03:39;;;;;;;25.48;13.18;;;;;;;5.46;58.85;101089.88;5109699;28;20101;-61
2022/02/22 06:06:06;;;;;;;25.42;12.38;;;;;;;5.47;58.78;101102.88;5109649;28;20055;-59
2022/02/22 06:08:32;;;;;;;23.25;12.43;;;;;;;5.48;58.93;101101.94;5110201;28;20039;-59
2022/02/22 06:10:59;;;;;;;28.35;13.60;;;;;;;5.51;59.28;101107.06;5109931;28;20092;-63
2022/02/22 06:13:25;;;;;;;26.88;13.38;;;;;;;5.53;58.99;101114.84;5109714;28;20043;-59
2022/02/22 06:15:52;;;;;;;29.70;13.00;;;;;;;5.51;58.99;101114.00;5109069;28;20044;-59
2022/02/22 06:18:19;;;;;;;28.80;12.63;;;;;;;5.50;59.21;101123.59;5105840;27;20400;-59
2022/02/22 06:20:46;;;;;;;26.67;13.63;;;;;;;5.51;59.21;101125.28;5109428;28;20433;-59
2022/02/22 06:23:13;;;;;;;24.15;12.27;;;;;;;5.51;59.04;101127.91;5106277;28;20104;-61
2022/02/22 06:25:41;;;;;;;25.88;11.57;;;;;;;5.51;59.13;101135.72;5094398;28;20052;-60
2022/02/22 06:28:08;;;;;;;21.38;11.00;;;;;;;5.53;58.90;101138.25;5099599;28;20077;-60
2022/02/22 06:30:35;;;;;;;22.48;10.75;;;;;;;5.55;58.85;101137.31;5093232;28;20047;-59
2022/02/22 06:33:03;;;;;;;21.73;10.68;;;;;;;5.56;58.44;101145.97;5103777;28;20484;-59
2022/02/22 06:35:29;;;;;;;25.27;11.18;;;;;;;5.53;58.49;101144.31;5102150;28;20405;-60
2022/02/22 06:37:56;;;;;;;23.00;10.57;;;;;;;5.57;58.28;101147.69;5109237;28;20089;-60
2022/02/22 06:40:26;;;;;;;23.65;9.75;;;;;;;5.63;58.06;101155.31;5109059;28;20081;-59
2022/02/22 06:42:53;;;;;;;19.60;9.70;;;;;;;5.61;57.97;101159.72;5096620;28;20454;-59
2022/02/22 06:45:20;;;;;;;19.08;9.75;;;;;;;5.64;57.69;101158.78;5092484;28;20040;-59
2022/02/22 06:47:47;;;;;;;20.30;9.80;;;;;;;5.62;57.68;101169.22;5095275;28;20063;-60
2022/02/22 06:50:13;;;;;;;18.90;9.43;;;;;;;5.64;57.31;101175.25;5091877;28;20071;-60
2022/02/22 06:52:41;;;;;;;17.73;9.88;;;;;;;5.69;57.62;101172.53;5088850;28;20072;-59
2022/02/22 06:55:09;;;;;;;20.02;9.52;;;;;;;5.77;57.59;101178.34;5090466;28;20113;-57
2022/02/22 06:57:37;;;;;;;16.67;8.95;;;;;;;6.04;57.01;101181.91;5090776;28;20093;-60
2022/02/22 07:00:09;;;;;;;15.93;8.93;;;;;;;6.05;57.23;101196.63;5090230;28;20106;-60
2022/02/22 07:02:37;;;;;;;16.80;9.73;;;;;;;6.10;57.27;101193.03;5089852;28;20526;-60
2022/02/22 07:05:06;;;;;;;18.15;10.45;;;;;;;6.21;57.45;101197.00;5090205;28;20047;-60
2022/02/22 07:07:33;;;;;;;18.67;9.30;;;;;;;6.33;56.87;101198.38;5091204;28;20563;-61
2022/02/22 07:10:00;;;;;;;15.95;7.55;;;;;;;6.51;56.42;101207.38;5097895;28;20044;-61
2022/02/22 07:12:26;;;;;;;13.20;6.57;;;;;;;6.66;56.01;101205.16;5093199;28;20043;-61
2022/02/22 07:14:53;;;;;;;12.00;6.75;;;;;;;6.75;55.68;101210.06;5093547;28;20558;-60
2022/02/22 07:17:21;;;;;;;8.50;5.07;;;;;;;6.87;55.32;101219.25;5102469;28;20052;-60
2022/02/22 07:19:48;;;;;;;10.02;5.20;;;;;;;7.05;54.79;101225.59;5098879;28;20089;-60
2022/02/22 07:22:14;;;;;;;11.50;4.40;;;;;;;7.28;54.02;101229.19;5101029;28;20116;-60
2022/02/22 07:24:41;;;;;;;6.57;3.00;;;;;;;7.53;52.91;101229.16;5103986;28;20044;-60
2022/02/22 07:27:08;;;;;;;9.77;3.78;;;;;;;7.78;52.08;101236.97;5103771;28;20515;-60
2022/02/22 07:29:34;;;;;;;7.80;3.40;;;;;;;8.07;51.32;101234.16;5097646;28;20044;-60
2022/02/22 07:32:01;;;;;;;17.48;5.35;;;;;;;8.29;50.69;101235.03;5097516;28;20101;-61
2022/02/22 07:34:28;;;;;;;16.52;8.05;;;;;;;8.31;50.77;101237.56;5110377;28;20047;-60
2022/02/22 07:36:54;;;;;;;15.30;7.35;;;;;;;8.31;50.94;101238.41;5097469;28;20098;-60
2022/02/22 07:39:21;;;;;;;17.80;7.20;;;;;;;8.47;50.73;101241.31;5099169;28;20052;-60
2022/02/22 07:41:47;;;;;;;17.10;7.53;;;;;;;8.72;50.61;101242.09;5104614;28;20179;-60
2022/02/22 07:44:14;;;;;;;15.18;7.72;;;;;;;8.97;50.30;101241.94;5094022;28;20093;-61
2022/02/22 07:46:42;;;;;;;15.77;7.60;;;;;;;9.26;50.08;101252.94;5098467;28;20040;-60
2022/02/22 07:49:10;;;;;;;17.85;9.10;;;;;;;9.35;50.24;101259.56;5106204;28;20051;-60
2022/02/22 07:51:36;;;;;;;21.77;10.07;;;;;;;9.24;50.69;101267.88;5099189;28;20044;-60
2022/02/22 07:54:03;;;;;;;19.85;10.70;;;;;;;9.38;50.70;101265.50;5098475;28;20047;-61
2022/02/22 07:56:31;;;;;;;21.35;12.30;;;;;;;9.45;50.70;101269.56;5095955;28;20134;-60
2022/02/22 07:58:58;;;;;;;20.83;11.38;;;;;;;9.68;50.57;101259.84;5099143;28;20412;-60
2022/02/22 08:01:25;;;;;;;22.42;11.95;;;;;;;9.82;50.39;101261.84;5095349;28;20404;-61
2022/02/22 08:03:51;;;;;;;20.75;11.50;;;;;;;9.82;50.67;101268.88;5097094;28;20488;-61
2022/02/22 08:06:18;;;;;;;22.92;12.48;;;;;;;10.02;50.25;101281.03;5096712;28;20040;-60
2022/02/22 08:08:47;;;;;;;22.80;11.80;;;;;;;9.71;51.09;101285.06;5097649;28;20389;-60
2022/02/22 08:11:14;;;;;;;19.90;10.75;;;;;;;9.85;50.46;101274.78;5099932;28;20043;-61
2022/02/22 08:13:41;;;;;;;17.88;11.43;;;;;;;10.11;49.68;101291.97;5101697;28;20085;-60
2022/02/22 08:16:07;;;;;;;21.20;12.50;;;;;;;10.27;49.48;101296.50;5106788;27;20048;-60
2022/02/22 08:18:34;;;;;;;25.35;14.57;;;;;;;10.26;49.52;101298.28;5107318;28;20522;-60
2022/02/22 08:21:01;;;;;;;21.65;12.80;;;;;;;10.41;49.36;101294.13;5105585;28;20389;-61
2022/02/22 08:23:31;;;;;;;22.88;12.45;;;;;;;10.36;49.66;101301.38;5107762;28;20101;-60
2022/02/22 08:26:06;;;;;;;25.42;13.48;;;;;;;10.54;49.29;101304.03;5103752;28;20059;-60
2022/02/22 08:28:33;;;;;;;19.27;9.80;;;;;;;10.81;48.70;101299.25;5108057;28;20083;-62
2022/02/22 08:31:00;;;;;;;17.98;8.68;;;;;;;11.10;48.08;101295.16;5095216;28;20048;-60
2022/02/22 08:33:27;;;;;;;13.65;7.07;;;;;;;11.32;47.20;101295.88;5106029;28;20039;-60
2022/02/22 08:35:55;;;;;;;15.00;6.30;;;;;;;11.23;46.70;101298.03;5110581;28;20570;-61
2022/02/22 08:38:22;;;;;;;12.38;6.00;;;;;;;11.54;45.55;101307.00;5110932;28;20105;-60
2022/02/22 08:40:49;;;;;;;9.95;5.65;;;;;;;11.72;44.74;101299.09;5110831;28;20491;-60
2022/02/22 08:43:17;;;;;;;26.27;15.82;;;;;;;11.96;43.93;101317.13;5108415;28;20661;-61
2022/02/22 08:45:45;;;;;;;20.25;11.23;;;;;;;12.12;43.67;101311.91;5104622;28;20051;-60
2022/02/22 08:48:13;;;;;;;21.80;9.82;;;;;;;12.20;43.92;101309.69;5096324;28;20052;-60
2022/02/22 08:50:41;;;;;;;17.15;9.15;;;;;;;12.38;43.63;101316.59;5100482;27;20045;-61
2022/02/22 08:53:08;;;;;;;9.48;5.18;;;;;;;12.68;43.29;101309.69;5099195;28;20043;-63
2022/02/22 08:55:35;;;;;;;8.88;4.60;;;;;;;12.89;42.85;101311.13;5094947;28;20047;-64
2022/02/22 08:58:02;;;;;;;12.07;5.45;;;;;;;13.01;42.25;101300.81;5099034;28;20052;-63
2022/02/22 09:00:31;;;;;;;9.93;4.35;;;;;;;13.28;41.70;101302.75;5099419;28;20047;-61
2022/02/22 09:02:58;;;;;;;8.60;4.38;;;;;;;13.48;40.75;101302.44;5096481;28;20040;-62
2022/02/22 09:05:25;;;;;;;28.77;16.90;;;;;;;13.68;40.46;101292.50;5092333;28;20048;-63
2022/02/22 09:07:52;;;;;;;64.95;36.80;;;;;;;13.85;40.00;101292.31;5093946;27;20048;-65
2022/02/22 09:10:19;;;;;;;27.40;15.65;;;;;;;14.02;39.25;101290.44;5093706;28;20553;-62
2022/02/22 09:12:47;;;;;;;12.23;6.82;;;;;;;14.25;38.53;101283.69;5096157;28;20072;-63
2022/02/22 09:15:16;;;;;;;28.27;12.77;;;;;;;14.42;37.86;101281.75;5098643;28;20088;-63
2022/02/22 09:17:44;;;;;;;45.90;35.83;;;;;;;14.62;37.21;101272.56;5073130;28;20075;-62
2022/02/22 09:20:13;;;;;;;36.58;23.05;;;;;;;14.83;37.20;101272.94;5100702;28;20140;-62
2022/02/22 09:22:41;;;;;;;19.65;10.40;;;;;;;15.07;36.76;101274.91;5097449;28;20543;-63
2022/02/22 09:25:10;;;;;;;37.55;21.20;;;;;;;15.25;36.44;101270.19;5104569;27;20384;-63
2022/02/22 09:27:42;;;;;;;56.53;30.10;;;;;;;15.48;36.33;101269.47;5105326;28;20043;-63
2022/02/22 09:30:15;;;;;;;11.80;6.07;;;;;;;15.64;35.56;101277.19;5099656;28;20052;-62
2022/02/22 09:32:44;;;;;;;8.38;5.53;;;;;;;15.89;35.15;101278.13;5107147;28;20040;-63
2022/02/22 09:35:14;;;;;;;5.28;2.70;;;;;;;16.03;34.54;101276.31;5094946;28;20043;-64
2022/02/22 09:37:41;;;;;;;8.15;4.07;;;;;;;15.83;35.04;101287.34;5097213;28;20507;-63
2022/02/22 09:40:12;;;;;;;7.20;4.63;;;;;;;15.48;36.40;101273.91;5093361;28;20520;-62
2022/02/22 09:42:40;;;;;;;10.40;3.45;;;;;;;15.75;37.02;101275.59;5100499;27;20434;-63
2022/02/22 09:45:08;;;;;;;8.13;3.50;;;;;;;16.11;37.31;101268.66;5101588;28;20064;-63
2022/02/22 09:47:36;;;;;;;7.47;2.85;;;;;;;16.05;37.29;101274.38;5095828;28;20040;-62
2022/02/22 09:50:04;;;;;;;6.90;2.65;;;;;;;16.42;36.55;101263.81;5096446;28;20048;-63
2022/02/22 09:52:32;;;;;;;6.45;2.65;;;;;;;16.68;36.18;101264.50;5091744;28;20770;-62
2022/02/22 09:54:58;;;;;;;5.38;2.20;;;;;;;16.67;36.05;101260.19;5099170;28;20547;-60
2022/02/22 09:57:25;;;;;;;3.70;2.42;;;;;;;16.77;35.96;101268.28;5102344;28;20043;-60
2022/02/22 09:59:52;;;;;;;4.82;2.22;;;;;;;17.01;35.79;101268.28;5072794;28;20048;-63
2022/02/22 10:02:19;;;;;;;4.43;1.85;;;;;;;17.32;35.62;101268.59;5104337;28;20042;-62
2022/02/22 10:04:49;;;;;;;4.28;2.00;;;;;;;17.49;35.97;101269.94;5099316;28;20465;-62
2022/02/22 10:07:17;;;;;;;5.20;1.90;;;;;;;17.55;35.68;101280.09;5099190;28;20086;-62
2022/02/22 10:09:55;;;;;;;3.90;1.63;;;;;;;17.57;35.42;101274.66;5099918;28;20050;-63
2022/02/22 10:12:35;;;;;;;3.80;1.35;;;;;;;17.90;35.07;101273.84;5097456;28;20562;-63
2022/02/22 10:15:05;;;;;;;4.93;1.10;;;;;;;18.13;34.38;101265.00;5106161;28;20079;-61
2022/02/22 10:17:36;;;;;;;2.70;1.13;;;;;;;18.40;33.42;101264.59;5100982;28;20064;-63
2022/02/22 10:20:04;;;;;;;3.00;0.63;;;;;;;18.59;32.84;101255.97;5096401;28;20437;-62
2022/02/22 10:22:32;;;;;;;2.15;0.68;;;;;;;18.67;31.85;101250.00;5100090;28;20505;-63
2022/02/22 10:25:08;;;;;;;1.92;0.50;;;;;;;18.74;29.84;101237.88;5108171;28;20040;-62
2022/02/22 10:27:40;;;;;;;;;;;;;;;18.82;29.44;101235.41;5110405;28;20043;-63
2022/02/22 10:30:23;;;;;;;2.25;0.60;;;;;;;18.99;28.09;101236.69;5090805;28;19920;-62
2022/02/22 10:32:50;;;;;;;0.80;0.50;;;;;;;18.89;27.69;101238.41;5092277;28;20058;-62
2022/02/22 10:35:33;;;;;;;2.05;0.57;;;;;;;18.99;26.73;101246.47;5097742;28;20055;-61
2022/02/22 10:38:13;;;;;;;1.10;0.60;;;;;;;19.22;26.58;101240.06;5100187;28;20558;-62
2022/02/22 10:40:41;;;;;;;1.70;0.70;;;;;;;19.23;25.99;101241.72;5098858;28;20086;-62
2022/02/22 10:43:18;;;;;;;1.10;0.60;;;;;;;19.29;25.76;101248.34;5087879;28;20105;-62
2022/02/22 10:45:49;;;;;;;0.88;0.52;;;;;;;19.17;25.39;101238.75;5101509;28;20051;-60
2022/02/22 10:48:58;;;;;;;1.67;0.73;;;;;;;19.11;24.91;101240.13;5103753;28;20047;-60
2022/02/22 10:51:33;;;;;;;2.88;0.77;;;;;;;19.13;24.85;101240.81;5018008;28;20049;-59
2022/02/22 10:53:59;;;;;;;3.15;0.93;;;;;;;19.18;24.94;101240.44;5094058;28;20051;-60
2022/02/22 10:56:30;;;;;;;0.82;0.70;;;;;;;19.24;24.56;101246.06;5096784;28;20059;-60
2022/02/22 10:58:57;;;;;;;1.30;0.85;;;;;;;19.40;24.34;101244.75;5096659;28;20067;-60
2022/02/22 11:01:29;;;;;;;2.00;1.05;;;;;;;19.31;24.30;101254.41;5095114;28;20050;-62
2022/02/22 11:03:56;;;;;;;2.58;0.90;;;;;;;19.43;23.94;101249.81;5098350;28;20144;-62
2022/02/22 11:06:23;;;;;;;1.77;0.88;;;;;;;19.57;23.54;101261.94;5102553;28;20138;-62
2022/02/22 11:08:53;;;;;;;7.38;3.63;;;;;;;19.79;23.51;101265.41;5103735;28;20124;-62
2022/02/22 11:11:43;;;;;;;7.57;4.78;;;;;;;19.87;23.25;101274.44;5091322;28;20039;-63
2022/02/22 11:14:14;;;;;;;2.95;1.83;;;;;;;20.01;23.14;101267.88;5090665;28;20051;-65
2022/02/22 11:16:49;;;;;;;1.98;0.75;;;;;;;20.15;22.90;101264.00;5102008;28;20044;-62
2022/02/22 11:19:16;;;;;;;1.63;0.80;;;;;;;20.08;22.69;101260.19;5099308;28;20257;-62
2022/02/22 11:21:44;;;;;;;2.38;1.17;;;;;;;20.28;22.64;101261.06;5098351;28;20078;-62
2022/02/22 11:24:12;;;;;;;1.55;1.20;;;;;;;20.34;22.36;101257.00;5102743;28;20040;-62